sensor_id;sensor_type;location;lat;lon;timestamp;P1;durP1;ratioP1;P2;durP2;ratioP2
17761;SDS011;9005;48.838;10.112;2023-11-19T00:02:24;0.57;;;0.45;;
17761;SDS011;9005;48.838;10.112;2023-11-19T00:04:51;1.65;;;1.42;;
17761;SDS011;9005;48.838;10.112;2023-11-19T00:07:18;1.95;;;1.50;;
17761;SDS011;9005;48.838;10.112;2023-11-19T00:09:45;1.88;;;1.50;;
17761;SDS011;9005;48.838;10.112;2023-11-19T00:12:13;1.25;;;1.15;;
17761;SDS011;9005;48.838;10.112;2023-11-19T00:14:40;3.75;;;1.55;;
17761;SDS011;9005;48.838;10.112;2023-11-19T00:17:07;0.95;;;0.73;;
17761;SDS011;9005;48.838;10.112;2023-11-19T00:19:33;2.88;;;1.50;;
17761;SDS011;9005;48.838;10.112;2023-11-19T00:22:00;2.33;;;1.40;;
17761;SDS011;9005;48.838;10.112;2023-11-19T00:24:28;1.73;;;1.30;;
17761;SDS011;9005;48.838;10.112;2023-11-19T00:26:55;1.83;;;1.58;;
17761;SDS011;9005;48.838;10.112;2023-11-19T00:29:23;2.70;;;1.85;;
17761;SDS011;9005;48.838;10.112;2023-11-19T00:31:50;5.57;;;3.22;;
17761;SDS011;9005;48.838;10.112;2023-11-19T00:34:17;2.35;;;1.15;;
17761;SDS011;9005;48.838;10.112;2023-11-19T00:36:46;3.60;;;1.58;;
17761;SDS011;9005;48.838;10.112;2023-11-19T00:39:13;1.38;;;1.13;;
17761;SDS011;9005;48.838;10.112;2023-11-19T00:41:41;1.40;;;0.90;;
17761;SDS011;9005;48.838;10.112;2023-11-19T00:44:07;1.98;;;1.23;;
17761;SDS011;9005;48.838;10.112;2023-11-19T00:46:35;2.65;;;1.35;;
17761;SDS011;9005;48.838;10.112;2023-11-19T00:49:02;1.85;;;1.65;;
17761;SDS011;9005;48.838;10.112;2023-11-19T00:51:29;3.05;;;1.45;;
17761;SDS011;9005;48.838;10.112;2023-11-19T00:53:57;1.40;;;1.15;;
17761;SDS011;9005;48.838;10.112;2023-11-19T00:56:24;1.20;;;1.10;;
17761;SDS011;9005;48.838;10.112;2023-11-19T00:58:50;1.20;;;1.10;;
17761;SDS011;9005;48.838;10.112;2023-11-19T01:01:17;1.40;;;1.00;;
17761;SDS011;9005;48.838;10.112;2023-11-19T01:03:45;1.13;;;1.02;;
17761;SDS011;9005;48.838;10.112;2023-11-19T01:06:12;1.08;;;0.88;;
17761;SDS011;9005;48.838;10.112;2023-11-19T01:08:42;1.38;;;0.93;;
17761;SDS011;9005;48.838;10.112;2023-11-19T01:11:11;2.78;;;1.92;;
17761;SDS011;9005;48.838;10.112;2023-11-19T01:13:46;3.33;;;1.63;;
17761;SDS011;9005;48.838;10.112;2023-11-19T01:16:13;2.17;;;0.93;;
17761;SDS011;9005;48.838;10.112;2023-11-19T01:18:39;1.02;;;0.90;;
17761;SDS011;9005;48.838;10.112;2023-11-19T01:21:08;0.80;;;0.80;;
17761;SDS011;9005;48.838;10.112;2023-11-19T01:23:34;1.17;;;1.08;;
17761;SDS011;9005;48.838;10.112;2023-11-19T01:26:02;0.82;;;0.82;;
17761;SDS011;9005;48.838;10.112;2023-11-19T01:28:30;1.05;;;0.80;;
17761;SDS011;9005;48.838;10.112;2023-11-19T01:30:57;1.85;;;1.17;;
17761;SDS011;9005;48.838;10.112;2023-11-19T01:33:23;2.63;;;0.80;;
17761;SDS011;9005;48.838;10.112;2023-11-19T01:35:50;2.92;;;1.20;;
17761;SDS011;9005;48.838;10.112;2023-11-19T01:38:18;1.70;;;1.15;;
17761;SDS011;9005;48.838;10.112;2023-11-19T01:40:45;2.28;;;1.85;;
17761;SDS011;9005;48.838;10.112;2023-11-19T01:43:12;3.17;;;2.50;;
17761;SDS011;9005;48.838;10.112;2023-11-19T01:45:56;1.20;;;1.10;;
17761;SDS011;9005;48.838;10.112;2023-11-19T01:48:22;1.13;;;1.02;;
17761;SDS011;9005;48.838;10.112;2023-11-19T01:50:49;1.02;;;0.90;;
17761;SDS011;9005;48.838;10.112;2023-11-19T01:53:18;3.15;;;2.45;;
17761;SDS011;9005;48.838;10.112;2023-11-19T01:55:46;2.83;;;1.40;;
17761;SDS011;9005;48.838;10.112;2023-11-19T01:58:13;0.70;;;0.63;;
17761;SDS011;9005;48.838;10.112;2023-11-19T02:00:40;2.83;;;1.80;;
17761;SDS011;9005;48.838;10.112;2023-11-19T02:03:07;1.38;;;1.27;;
17761;SDS011;9005;48.838;10.112;2023-11-19T02:05:34;0.50;;;0.50;;
17761;SDS011;9005;48.838;10.112;2023-11-19T02:08:01;0.43;;;0.43;;
17761;SDS011;9005;48.838;10.112;2023-11-19T02:10:29;1.73;;;0.82;;
17761;SDS011;9005;48.838;10.112;2023-11-19T02:12:57;0.88;;;0.80;;
17761;SDS011;9005;48.838;10.112;2023-11-19T02:15:24;0.60;;;0.50;;
17761;SDS011;9005;48.838;10.112;2023-11-19T02:17:50;5.47;;;3.63;;
17761;SDS011;9005;48.838;10.112;2023-11-19T02:20:17;1.10;;;0.50;;
17761;SDS011;9005;48.838;10.112;2023-11-19T02:22:45;1.13;;;0.40;;
17761;SDS011;9005;48.838;10.112;2023-11-19T02:25:15;0.50;;;0.40;;
17761;SDS011;9005;48.838;10.112;2023-11-19T02:27:49;1.85;;;0.45;;
17761;SDS011;9005;48.838;10.112;2023-11-19T02:30:21;0.20;;;0.20;;
17761;SDS011;9005;48.838;10.112;2023-11-19T02:32:51;0.43;;;0.43;;
17761;SDS011;9005;48.838;10.112;2023-11-19T02:35:18;0.20;;;0.20;;
17761;SDS011;9005;48.838;10.112;2023-11-19T02:37:46;0.30;;;0.30;;
17761;SDS011;9005;48.838;10.112;2023-11-19T02:40:13;0.98;;;0.70;;
17761;SDS011;9005;48.838;10.112;2023-11-19T02:42:40;0.52;;;0.40;;
17761;SDS011;9005;48.838;10.112;2023-11-19T02:45:09;0.95;;;0.50;;
17761;SDS011;9005;48.838;10.112;2023-11-19T02:47:39;0.30;;;0.30;;
17761;SDS011;9005;48.838;10.112;2023-11-19T02:50:06;0.35;;;0.35;;
17761;SDS011;9005;48.838;10.112;2023-11-19T02:52:38;0.57;;;0.38;;
17761;SDS011;9005;48.838;10.112;2023-11-19T02:55:06;0.40;;;0.40;;
17761;SDS011;9005;48.838;10.112;2023-11-19T02:57:34;0.43;;;0.43;;
17761;SDS011;9005;48.838;10.112;2023-11-19T03:00:01;0.40;;;0.38;;
17761;SDS011;9005;48.838;10.112;2023-11-19T03:02:38;0.40;;;0.40;;
17761;SDS011;9005;48.838;10.112;2023-11-19T03:05:10;0.40;;;0.40;;
17761;SDS011;9005;48.838;10.112;2023-11-19T03:07:36;0.60;;;0.47;;
17761;SDS011;9005;48.838;10.112;2023-11-19T03:10:03;0.30;;;0.30;;
17761;SDS011;9005;48.838;10.112;2023-11-19T03:12:31;0.73;;;0.57;;
17761;SDS011;9005;48.838;10.112;2023-11-19T03:14:58;0.43;;;0.43;;
17761;SDS011;9005;48.838;10.112;2023-11-19T03:17:25;0.70;;;0.47;;
17761;SDS011;9005;48.838;10.112;2023-11-19T03:19:53;0.68;;;0.40;;
17761;SDS011;9005;48.838;10.112;2023-11-19T03:22:19;1.02;;;0.40;;
17761;SDS011;9005;48.838;10.112;2023-11-19T03:24:46;0.73;;;0.40;;
17761;SDS011;9005;48.838;10.112;2023-11-19T03:27:13;0.65;;;0.30;;
17761;SDS011;9005;48.838;10.112;2023-11-19T03:29:40;0.30;;;0.30;;
17761;SDS011;9005;48.838;10.112;2023-11-19T03:32:06;3.20;;;0.40;;
17761;SDS011;9005;48.838;10.112;2023-11-19T03:34:33;0.50;;;0.43;;
17761;SDS011;9005;48.838;10.112;2023-11-19T03:37:01;0.47;;;0.47;;
17761;SDS011;9005;48.838;10.112;2023-11-19T03:39:28;0.30;;;0.30;;
17761;SDS011;9005;48.838;10.112;2023-11-19T03:41:55;0.52;;;0.50;;
17761;SDS011;9005;48.838;10.112;2023-11-19T03:44:22;0.32;;;0.32;;
17761;SDS011;9005;48.838;10.112;2023-11-19T03:46:51;0.30;;;0.30;;
17761;SDS011;9005;48.838;10.112;2023-11-19T03:49:18;0.63;;;0.63;;
17761;SDS011;9005;48.838;10.112;2023-11-19T03:51:44;0.30;;;0.30;;
17761;SDS011;9005;48.838;10.112;2023-11-19T03:54:13;0.30;;;0.30;;
17761;SDS011;9005;48.838;10.112;2023-11-19T03:56:40;0.57;;;0.30;;
17761;SDS011;9005;48.838;10.112;2023-11-19T03:59:06;0.30;;;0.30;;
17761;SDS011;9005;48.838;10.112;2023-11-19T04:01:34;0.60;;;0.43;;
17761;SDS011;9005;48.838;10.112;2023-11-19T04:04:02;0.40;;;0.40;;
17761;SDS011;9005;48.838;10.112;2023-11-19T04:06:29;0.50;;;0.50;;
17761;SDS011;9005;48.838;10.112;2023-11-19T04:08:56;0.43;;;0.40;;
17761;SDS011;9005;48.838;10.112;2023-11-19T04:11:24;0.45;;;0.40;;
17761;SDS011;9005;48.838;10.112;2023-11-19T04:13:51;0.75;;;0.60;;
17761;SDS011;9005;48.838;10.112;2023-11-19T04:16:18;0.40;;;0.30;;
17761;SDS011;9005;48.838;10.112;2023-11-19T04:18:45;1.30;;;0.40;;
17761;SDS011;9005;48.838;10.112;2023-11-19T04:21:11;0.40;;;0.40;;
17761;SDS011;9005;48.838;10.112;2023-11-19T04:23:38;0.40;;;0.40;;
17761;SDS011;9005;48.838;10.112;2023-11-19T04:26:05;0.30;;;0.30;;
17761;SDS011;9005;48.838;10.112;2023-11-19T04:28:33;0.20;;;0.20;;
17761;SDS011;9005;48.838;10.112;2023-11-19T04:31:00;0.20;;;0.20;;
17761;SDS011;9005;48.838;10.112;2023-11-19T04:33:28;0.30;;;0.30;;
17761;SDS011;9005;48.838;10.112;2023-11-19T04:35:55;0.40;;;0.40;;
17761;SDS011;9005;48.838;10.112;2023-11-19T04:38:21;0.57;;;0.30;;
17761;SDS011;9005;48.838;10.112;2023-11-19T04:40:48;0.30;;;0.30;;
17761;SDS011;9005;48.838;10.112;2023-11-19T04:43:15;0.90;;;0.65;;
17761;SDS011;9005;48.838;10.112;2023-11-19T04:45:43;0.25;;;0.25;;
17761;SDS011;9005;48.838;10.112;2023-11-19T04:48:10;3.50;;;0.45;;
17761;SDS011;9005;48.838;10.112;2023-11-19T04:50:37;0.52;;;0.40;;
17761;SDS011;9005;48.838;10.112;2023-11-19T04:53:04;2.17;;;0.20;;
17761;SDS011;9005;48.838;10.112;2023-11-19T04:55:31;0.20;;;0.20;;
17761;SDS011;9005;48.838;10.112;2023-11-19T04:57:57;0.38;;;0.38;;
17761;SDS011;9005;48.838;10.112;2023-11-19T05:00:24;0.20;;;0.20;;
17761;SDS011;9005;48.838;10.112;2023-11-19T05:02:52;1.00;;;0.55;;
17761;SDS011;9005;48.838;10.112;2023-11-19T05:05:19;0.30;;;0.30;;
17761;SDS011;9005;48.838;10.112;2023-11-19T05:07:46;0.20;;;0.20;;
17761;SDS011;9005;48.838;10.112;2023-11-19T05:10:12;0.40;;;0.32;;
17761;SDS011;9005;48.838;10.112;2023-11-19T05:12:39;0.20;;;0.20;;
17761;SDS011;9005;48.838;10.112;2023-11-19T05:15:06;0.38;;;0.38;;
17761;SDS011;9005;48.838;10.112;2023-11-19T05:17:33;0.20;;;0.20;;
17761;SDS011;9005;48.838;10.112;2023-11-19T05:20:04;0.30;;;0.30;;
17761;SDS011;9005;48.838;10.112;2023-11-19T05:22:38;0.55;;;0.50;;
17761;SDS011;9005;48.838;10.112;2023-11-19T05:25:05;1.15;;;0.17;;
17761;SDS011;9005;48.838;10.112;2023-11-19T05:27:33;1.17;;;0.52;;
17761;SDS011;9005;48.838;10.112;2023-11-19T05:30:00;0.40;;;0.40;;
17761;SDS011;9005;48.838;10.112;2023-11-19T05:32:27;0.73;;;0.50;;
17761;SDS011;9005;48.838;10.112;2023-11-19T05:34:54;0.98;;;0.30;;
17761;SDS011;9005;48.838;10.112;2023-11-19T05:37:22;0.32;;;0.32;;
17761;SDS011;9005;48.838;10.112;2023-11-19T05:39:50;0.20;;;0.20;;
17761;SDS011;9005;48.838;10.112;2023-11-19T05:42:17;0.35;;;0.30;;
17761;SDS011;9005;48.838;10.112;2023-11-19T05:44:44;0.28;;;0.20;;
17761;SDS011;9005;48.838;10.112;2023-11-19T05:47:11;0.20;;;0.20;;
17761;SDS011;9005;48.838;10.112;2023-11-19T05:49:38;0.47;;;0.32;;
17761;SDS011;9005;48.838;10.112;2023-11-19T05:52:04;0.10;;;0.10;;
17761;SDS011;9005;48.838;10.112;2023-11-19T05:54:34;0.25;;;0.25;;
17761;SDS011;9005;48.838;10.112;2023-11-19T05:57:03;0.70;;;0.30;;
17761;SDS011;9005;48.838;10.112;2023-11-19T05:59:30;1.48;;;0.60;;
17761;SDS011;9005;48.838;10.112;2023-11-19T06:01:58;0.35;;;0.35;;
17761;SDS011;9005;48.838;10.112;2023-11-19T06:04:25;0.10;;;0.10;;
17761;SDS011;9005;48.838;10.112;2023-11-19T06:06:51;0.68;;;0.22;;
17761;SDS011;9005;48.838;10.112;2023-11-19T06:09:19;0.40;;;0.40;;
17761;SDS011;9005;48.838;10.112;2023-11-19T06:11:49;0.20;;;0.20;;
17761;SDS011;9005;48.838;10.112;2023-11-19T06:14:17;0.47;;;0.40;;
17761;SDS011;9005;48.838;10.112;2023-11-19T06:16:44;1.67;;;0.40;;
17761;SDS011;9005;48.838;10.112;2023-11-19T06:19:11;0.40;;;0.30;;
17761;SDS011;9005;48.838;10.112;2023-11-19T06:21:38;0.20;;;0.20;;
17761;SDS011;9005;48.838;10.112;2023-11-19T06:24:05;0.10;;;0.10;;
17761;SDS011;9005;48.838;10.112;2023-11-19T06:26:32;0.50;;;0.30;;
17761;SDS011;9005;48.838;10.112;2023-11-19T06:29:00;0.20;;;0.20;;
17761;SDS011;9005;48.838;10.112;2023-11-19T06:31:27;0.32;;;0.32;;
17761;SDS011;9005;48.838;10.112;2023-11-19T06:33:53;3.10;;;0.30;;
17761;SDS011;9005;48.838;10.112;2023-11-19T06:36:20;0.30;;;0.20;;
17761;SDS011;9005;48.838;10.112;2023-11-19T06:38:47;0.30;;;0.30;;
17761;SDS011;9005;48.838;10.112;2023-11-19T06:41:14;0.52;;;0.20;;
17761;SDS011;9005;48.838;10.112;2023-11-19T06:43:40;0.57;;;0.20;;
17761;SDS011;9005;48.838;10.112;2023-11-19T06:46:15;0.40;;;0.25;;
17761;SDS011;9005;48.838;10.112;2023-11-19T06:48:42;3.67;;;0.95;;
17761;SDS011;9005;48.838;10.112;2023-11-19T06:51:09;4.55;;;0.75;;
17761;SDS011;9005;48.838;10.112;2023-11-19T06:53:36;0.55;;;0.30;;
17761;SDS011;9005;48.838;10.112;2023-11-19T06:56:04;2.45;;;0.57;;
17761;SDS011;9005;48.838;10.112;2023-11-19T06:58:43;0.60;;;0.40;;
17761;SDS011;9005;48.838;10.112;2023-11-19T07:01:09;0.40;;;0.40;;
17761;SDS011;9005;48.838;10.112;2023-11-19T07:03:38;0.32;;;0.30;;
17761;SDS011;9005;48.838;10.112;2023-11-19T07:06:05;2.67;;;0.35;;
17761;SDS011;9005;48.838;10.112;2023-11-19T07:08:32;0.47;;;0.20;;
17761;SDS011;9005;48.838;10.112;2023-11-19T07:10:59;1.90;;;0.50;;
17761;SDS011;9005;48.838;10.112;2023-11-19T07:13:26;0.85;;;0.43;;
17761;SDS011;9005;48.838;10.112;2023-11-19T07:15:53;1.85;;;0.95;;
17761;SDS011;9005;48.838;10.112;2023-11-19T07:18:20;1.60;;;0.22;;
17761;SDS011;9005;48.838;10.112;2023-11-19T07:20:48;8.68;;;1.65;;
17761;SDS011;9005;48.838;10.112;2023-11-19T07:23:15;9.20;;;1.50;;
17761;SDS011;9005;48.838;10.112;2023-11-19T07:25:42;1.05;;;0.50;;
17761;SDS011;9005;48.838;10.112;2023-11-19T07:28:10;6.22;;;1.98;;
17761;SDS011;9005;48.838;10.112;2023-11-19T07:30:37;0.88;;;0.52;;
17761;SDS011;9005;48.838;10.112;2023-11-19T07:33:04;14.35;;;2.70;;
17761;SDS011;9005;48.838;10.112;2023-11-19T07:35:31;7.38;;;2.58;;
17761;SDS011;9005;48.838;10.112;2023-11-19T07:37:59;1.60;;;0.70;;
17761;SDS011;9005;48.838;10.112;2023-11-19T07:40:26;8.68;;;1.63;;
17761;SDS011;9005;48.838;10.112;2023-11-19T07:42:52;9.38;;;2.80;;
17761;SDS011;9005;48.838;10.112;2023-11-19T07:45:19;11.40;;;3.50;;
17761;SDS011;9005;48.838;10.112;2023-11-19T07:47:46;11.82;;;4.03;;
17761;SDS011;9005;48.838;10.112;2023-11-19T07:50:13;6.93;;;2.00;;
17761;SDS011;9005;48.838;10.112;2023-11-19T07:52:41;18.88;;;4.72;;
17761;SDS011;9005;48.838;10.112;2023-11-19T07:55:09;11.50;;;3.92;;
17761;SDS011;9005;48.838;10.112;2023-11-19T07:57:36;8.30;;;3.17;;
17761;SDS011;9005;48.838;10.112;2023-11-19T08:00:04;16.27;;;4.35;;
17761;SDS011;9005;48.838;10.112;2023-11-19T08:02:31;5.65;;;1.98;;
17761;SDS011;9005;48.838;10.112;2023-11-19T08:04:58;12.88;;;3.80;;
17761;SDS011;9005;48.838;10.112;2023-11-19T08:07:25;2.40;;;0.75;;
17761;SDS011;9005;48.838;10.112;2023-11-19T08:09:52;0.28;;;0.28;;
17761;SDS011;9005;48.838;10.112;2023-11-19T08:12:20;0.30;;;0.30;;
17761;SDS011;9005;48.838;10.112;2023-11-19T08:14:46;0.20;;;0.20;;
17761;SDS011;9005;48.838;10.112;2023-11-19T08:17:14;0.20;;;0.20;;
17761;SDS011;9005;48.838;10.112;2023-11-19T08:19:41;0.20;;;0.20;;
17761;SDS011;9005;48.838;10.112;2023-11-19T08:22:07;0.10;;;0.10;;
17761;SDS011;9005;48.838;10.112;2023-11-19T08:24:38;0.10;;;0.10;;
17761;SDS011;9005;48.838;10.112;2023-11-19T08:27:04;0.20;;;0.20;;
17761;SDS011;9005;48.838;10.112;2023-11-19T08:29:32;0.47;;;0.43;;
17761;SDS011;9005;48.838;10.112;2023-11-19T08:32:00;0.38;;;0.20;;
17761;SDS011;9005;48.838;10.112;2023-11-19T08:34:28;0.40;;;0.40;;
17761;SDS011;9005;48.838;10.112;2023-11-19T08:36:55;0.45;;;0.30;;
17761;SDS011;9005;48.838;10.112;2023-11-19T08:39:22;0.20;;;0.20;;
17761;SDS011;9005;48.838;10.112;2023-11-19T08:41:49;0.20;;;0.20;;
17761;SDS011;9005;48.838;10.112;2023-11-19T08:44:16;0.10;;;0.10;;
17761;SDS011;9005;48.838;10.112;2023-11-19T08:46:49;0.30;;;0.30;;
17761;SDS011;9005;48.838;10.112;2023-11-19T08:49:15;0.32;;;0.20;;
17761;SDS011;9005;48.838;10.112;2023-11-19T08:51:42;0.35;;;0.30;;
17761;SDS011;9005;48.838;10.112;2023-11-19T08:54:10;0.30;;;0.30;;
17761;SDS011;9005;48.838;10.112;2023-11-19T08:56:37;0.30;;;0.30;;
17761;SDS011;9005;48.838;10.112;2023-11-19T08:59:04;0.65;;;0.30;;
17761;SDS011;9005;48.838;10.112;2023-11-19T09:01:31;0.30;;;0.30;;
17761;SDS011;9005;48.838;10.112;2023-11-19T09:03:59;0.65;;;0.50;;
17761;SDS011;9005;48.838;10.112;2023-11-19T09:06:26;0.25;;;0.25;;
17761;SDS011;9005;48.838;10.112;2023-11-19T09:08:53;0.20;;;0.20;;
17761;SDS011;9005;48.838;10.112;2023-11-19T09:11:23;0.20;;;0.20;;
17761;SDS011;9005;48.838;10.112;2023-11-19T09:13:50;0.40;;;0.22;;
17761;SDS011;9005;48.838;10.112;2023-11-19T09:16:16;0.20;;;0.20;;
17761;SDS011;9005;48.838;10.112;2023-11-19T09:18:43;0.20;;;0.20;;
17761;SDS011;9005;48.838;10.112;2023-11-19T09:21:11;0.38;;;0.38;;
17761;SDS011;9005;48.838;10.112;2023-11-19T09:23:38;0.13;;;0.13;;
17761;SDS011;9005;48.838;10.112;2023-11-19T09:26:05;0.63;;;0.30;;
17761;SDS011;9005;48.838;10.112;2023-11-19T09:28:34;0.20;;;0.20;;
17761;SDS011;9005;48.838;10.112;2023-11-19T09:31:00;0.55;;;0.40;;
17761;SDS011;9005;48.838;10.112;2023-11-19T09:33:29;0.30;;;0.30;;
17761;SDS011;9005;48.838;10.112;2023-11-19T09:35:56;0.30;;;0.30;;
17761;SDS011;9005;48.838;10.112;2023-11-19T09:38:24;1.38;;;0.30;;
17761;SDS011;9005;48.838;10.112;2023-11-19T09:40:51;0.30;;;0.30;;
17761;SDS011;9005;48.838;10.112;2023-11-19T09:43:18;0.50;;;0.30;;
17761;SDS011;9005;48.838;10.112;2023-11-19T09:45:46;0.40;;;0.40;;
17761;SDS011;9005;48.838;10.112;2023-11-19T09:48:16;0.30;;;0.30;;
17761;SDS011;9005;48.838;10.112;2023-11-19T09:50:44;0.40;;;0.40;;
17761;SDS011;9005;48.838;10.112;2023-11-19T09:53:12;0.20;;;0.20;;
17761;SDS011;9005;48.838;10.112;2023-11-19T09:55:41;0.40;;;0.35;;
17761;SDS011;9005;48.838;10.112;2023-11-19T09:58:09;0.38;;;0.30;;
17761;SDS011;9005;48.838;10.112;2023-11-19T10:00:38;0.43;;;0.43;;
17761;SDS011;9005;48.838;10.112;2023-11-19T10:03:05;0.40;;;0.40;;
17761;SDS011;9005;48.838;10.112;2023-11-19T10:05:37;0.35;;;0.35;;
17761;SDS011;9005;48.838;10.112;2023-11-19T10:08:05;0.40;;;0.40;;
17761;SDS011;9005;48.838;10.112;2023-11-19T10:10:32;0.40;;;0.38;;
17761;SDS011;9005;48.838;10.112;2023-11-19T10:13:01;0.45;;;0.40;;
17761;SDS011;9005;48.838;10.112;2023-11-19T10:15:27;0.40;;;0.40;;
17761;SDS011;9005;48.838;10.112;2023-11-19T10:17:57;0.30;;;0.30;;
17761;SDS011;9005;48.838;10.112;2023-11-19T10:20:25;0.40;;;0.40;;
17761;SDS011;9005;48.838;10.112;2023-11-19T10:22:52;0.40;;;0.40;;
17761;SDS011;9005;48.838;10.112;2023-11-19T10:25:23;0.60;;;0.50;;
17761;SDS011;9005;48.838;10.112;2023-11-19T10:27:51;0.52;;;0.38;;
17761;SDS011;9005;48.838;10.112;2023-11-19T10:30:19;0.60;;;0.60;;
17761;SDS011;9005;48.838;10.112;2023-11-19T10:32:56;0.60;;;0.60;;
17761;SDS011;9005;48.838;10.112;2023-11-19T10:35:30;0.45;;;0.40;;
17761;SDS011;9005;48.838;10.112;2023-11-19T10:37:58;0.80;;;0.50;;
17761;SDS011;9005;48.838;10.112;2023-11-19T10:40:37;1.48;;;0.40;;
17761;SDS011;9005;48.838;10.112;2023-11-19T10:43:05;0.85;;;0.80;;
17761;SDS011;9005;48.838;10.112;2023-11-19T10:45:34;0.75;;;0.60;;
17761;SDS011;9005;48.838;10.112;2023-11-19T10:48:02;0.77;;;0.40;;
17761;SDS011;9005;48.838;10.112;2023-11-19T10:50:31;0.30;;;0.30;;
17761;SDS011;9005;48.838;10.112;2023-11-19T10:52:59;0.50;;;0.50;;
17761;SDS011;9005;48.838;10.112;2023-11-19T10:55:26;0.47;;;0.40;;
17761;SDS011;9005;48.838;10.112;2023-11-19T10:57:56;0.43;;;0.43;;
17761;SDS011;9005;48.838;10.112;2023-11-19T11:00:26;0.60;;;0.40;;
17761;SDS011;9005;48.838;10.112;2023-11-19T11:02:56;0.40;;;0.40;;
17761;SDS011;9005;48.838;10.112;2023-11-19T11:05:27;0.50;;;0.40;;
17761;SDS011;9005;48.838;10.112;2023-11-19T11:07:58;0.98;;;0.30;;
17761;SDS011;9005;48.838;10.112;2023-11-19T11:10:26;0.65;;;0.50;;
17761;SDS011;9005;48.838;10.112;2023-11-19T11:12:54;0.63;;;0.35;;
17761;SDS011;9005;48.838;10.112;2023-11-19T11:15:25;0.75;;;0.50;;
17761;SDS011;9005;48.838;10.112;2023-11-19T11:17:54;0.30;;;0.30;;
17761;SDS011;9005;48.838;10.112;2023-11-19T11:20:26;1.05;;;0.40;;
17761;SDS011;9005;48.838;10.112;2023-11-19T11:22:57;0.30;;;0.30;;
17761;SDS011;9005;48.838;10.112;2023-11-19T11:25:52;0.20;;;0.20;;
17761;SDS011;9005;48.838;10.112;2023-11-19T11:28:28;0.88;;;0.40;;
17761;SDS011;9005;48.838;10.112;2023-11-19T11:31:08;0.30;;;0.30;;
17761;SDS011;9005;48.838;10.112;2023-11-19T11:33:48;1.73;;;0.50;;
17761;SDS011;9005;48.838;10.112;2023-11-19T11:36:29;1.00;;;0.40;;
17761;SDS011;9005;48.838;10.112;2023-11-19T11:39:00;0.40;;;0.40;;
17761;SDS011;9005;48.838;10.112;2023-11-19T11:41:32;0.30;;;0.30;;
17761;SDS011;9005;48.838;10.112;2023-11-19T11:43:59;0.77;;;0.57;;
17761;SDS011;9005;48.838;10.112;2023-11-19T11:51:57;0.40;;;0.40;;
17761;SDS011;9005;48.838;10.112;2023-11-19T11:54:29;1.73;;;0.50;;
17761;SDS011;9005;48.838;10.112;2023-11-19T11:57:03;0.40;;;0.40;;
17761;SDS011;9005;48.838;10.112;2023-11-19T11:59:36;0.35;;;0.35;;
17761;SDS011;9005;48.838;10.112;2023-11-19T12:02:13;0.30;;;0.30;;
17761;SDS011;9005;48.838;10.112;2023-11-19T12:04:43;1.33;;;0.52;;
17761;SDS011;9005;48.838;10.112;2023-11-19T12:07:14;0.55;;;0.40;;
17761;SDS011;9005;48.838;10.112;2023-11-19T12:09:42;0.20;;;0.20;;
17761;SDS011;9005;48.838;10.112;2023-11-19T12:12:21;0.30;;;0.30;;
17761;SDS011;9005;48.838;10.112;2023-11-19T12:15:07;0.30;;;0.30;;
17761;SDS011;9005;48.838;10.112;2023-11-19T12:17:36;0.30;;;0.30;;
17761;SDS011;9005;48.838;10.112;2023-11-19T12:20:10;0.38;;;0.38;;
17761;SDS011;9005;48.838;10.112;2023-11-19T12:22:37;0.43;;;0.40;;
17761;SDS011;9005;48.838;10.112;2023-11-19T12:25:06;1.20;;;0.47;;
17761;SDS011;9005;48.838;10.112;2023-11-19T12:27:34;0.50;;;0.40;;
17761;SDS011;9005;48.838;10.112;2023-11-19T12:30:01;1.60;;;0.60;;
17761;SDS011;9005;48.838;10.112;2023-11-19T12:32:37;0.30;;;0.30;;
17761;SDS011;9005;48.838;10.112;2023-11-19T12:35:05;1.10;;;0.55;;
17761;SDS011;9005;48.838;10.112;2023-11-19T12:37:39;0.65;;;0.40;;
17761;SDS011;9005;48.838;10.112;2023-11-19T12:40:11;0.30;;;0.30;;
17761;SDS011;9005;48.838;10.112;2023-11-19T12:42:42;0.30;;;0.30;;
17761;SDS011;9005;48.838;10.112;2023-11-19T12:45:09;0.93;;;0.60;;
17761;SDS011;9005;48.838;10.112;2023-11-19T12:47:37;0.98;;;0.50;;
17761;SDS011;9005;48.838;10.112;2023-11-19T12:50:04;0.60;;;0.50;;
17761;SDS011;9005;48.838;10.112;2023-11-19T12:52:31;0.40;;;0.40;;
17761;SDS011;9005;48.838;10.112;2023-11-19T12:55:00;1.10;;;0.60;;
17761;SDS011;9005;48.838;10.112;2023-11-19T12:57:37;0.80;;;0.30;;
17761;SDS011;9005;48.838;10.112;2023-11-19T13:00:05;0.85;;;0.60;;
17761;SDS011;9005;48.838;10.112;2023-11-19T13:02:45;0.55;;;0.52;;
17761;SDS011;9005;48.838;10.112;2023-11-19T13:05:26;0.93;;;0.50;;
17761;SDS011;9005;48.838;10.112;2023-11-19T13:08:02;1.00;;;0.40;;
17761;SDS011;9005;48.838;10.112;2023-11-19T13:10:31;2.75;;;0.70;;
17761;SDS011;9005;48.838;10.112;2023-11-19T13:13:00;0.30;;;0.30;;
17761;SDS011;9005;48.838;10.112;2023-11-19T13:15:27;0.60;;;0.60;;
17761;SDS011;9005;48.838;10.112;2023-11-19T13:17:54;0.45;;;0.35;;
17761;SDS011;9005;48.838;10.112;2023-11-19T13:20:21;0.47;;;0.30;;
17761;SDS011;9005;48.838;10.112;2023-11-19T13:22:57;0.30;;;0.30;;
17761;SDS011;9005;48.838;10.112;2023-11-19T13:25:25;0.45;;;0.38;;
17761;SDS011;9005;48.838;10.112;2023-11-19T13:27:53;0.50;;;0.50;;
17761;SDS011;9005;48.838;10.112;2023-11-19T13:30:20;0.40;;;0.32;;
17761;SDS011;9005;48.838;10.112;2023-11-19T13:32:48;1.13;;;0.57;;
17761;SDS011;9005;48.838;10.112;2023-11-19T13:35:15;0.47;;;0.45;;
17761;SDS011;9005;48.838;10.112;2023-11-19T13:37:43;0.88;;;0.40;;
17761;SDS011;9005;48.838;10.112;2023-11-19T13:40:10;0.77;;;0.47;;
17761;SDS011;9005;48.838;10.112;2023-11-19T13:42:39;0.65;;;0.60;;
17761;SDS011;9005;48.838;10.112;2023-11-19T13:45:08;0.80;;;0.80;;
17761;SDS011;9005;48.838;10.112;2023-11-19T13:47:37;0.50;;;0.43;;
17761;SDS011;9005;48.838;10.112;2023-11-19T13:50:06;0.82;;;0.50;;
17761;SDS011;9005;48.838;10.112;2023-11-19T13:52:34;0.40;;;0.40;;
17761;SDS011;9005;48.838;10.112;2023-11-19T13:55:03;0.82;;;0.50;;
17761;SDS011;9005;48.838;10.112;2023-11-19T13:57:31;0.43;;;0.40;;
17761;SDS011;9005;48.838;10.112;2023-11-19T13:59:59;0.63;;;0.55;;
17761;SDS011;9005;48.838;10.112;2023-11-19T14:02:27;0.50;;;0.50;;
17761;SDS011;9005;48.838;10.112;2023-11-19T14:04:54;1.23;;;0.40;;
17761;SDS011;9005;48.838;10.112;2023-11-19T14:07:21;0.85;;;0.40;;
17761;SDS011;9005;48.838;10.112;2023-11-19T14:09:47;0.55;;;0.50;;
17761;SDS011;9005;48.838;10.112;2023-11-19T14:12:15;0.65;;;0.40;;
17761;SDS011;9005;48.838;10.112;2023-11-19T14:14:42;0.73;;;0.45;;
17761;SDS011;9005;48.838;10.112;2023-11-19T14:17:09;0.88;;;0.43;;
17761;SDS011;9005;48.838;10.112;2023-11-19T14:19:37;0.40;;;0.40;;
17761;SDS011;9005;48.838;10.112;2023-11-19T14:22:04;0.57;;;0.47;;
17761;SDS011;9005;48.838;10.112;2023-11-19T14:24:31;0.40;;;0.40;;
17761;SDS011;9005;48.838;10.112;2023-11-19T14:26:58;0.50;;;0.50;;
17761;SDS011;9005;48.838;10.112;2023-11-19T14:29:26;0.65;;;0.50;;
17761;SDS011;9005;48.838;10.112;2023-11-19T14:31:53;0.40;;;0.40;;
17761;SDS011;9005;48.838;10.112;2023-11-19T14:34:20;0.65;;;0.57;;
17761;SDS011;9005;48.838;10.112;2023-11-19T14:36:48;1.15;;;0.50;;
17761;SDS011;9005;48.838;10.112;2023-11-19T14:39:15;0.32;;;0.32;;
17761;SDS011;9005;48.838;10.112;2023-11-19T14:41:42;0.88;;;0.43;;
17761;SDS011;9005;48.838;10.112;2023-11-19T14:44:09;0.55;;;0.43;;
17761;SDS011;9005;48.838;10.112;2023-11-19T14:46:36;0.82;;;0.50;;
17761;SDS011;9005;48.838;10.112;2023-11-19T14:49:03;1.42;;;0.63;;
17761;SDS011;9005;48.838;10.112;2023-11-19T14:51:30;0.70;;;0.40;;
17761;SDS011;9005;48.838;10.112;2023-11-19T14:53:58;1.35;;;0.60;;
17761;SDS011;9005;48.838;10.112;2023-11-19T14:56:25;0.73;;;0.40;;
17761;SDS011;9005;48.838;10.112;2023-11-19T14:58:51;1.20;;;0.65;;
17761;SDS011;9005;48.838;10.112;2023-11-19T15:01:18;0.50;;;0.50;;